Time;durP1;ratioP1;P1;durP2;ratioP2;P2;SDS_P1;SDS_P2;PMS_P1;PMS_P2;Temp;Humidity;BMP_temperature;BMP_pressure;BME280_temperature;BME280_humidity;BME280_pressure;Samples;Min_cycle;Max_cycle;Signal;HPM_P1;HPM_P2
2021/08/07 00:00:17;;;;;;;1.00;1.00;;;;;;;;;;492349;241;27507;-72
2021/08/07 00:02:19;;;;;;;1.20;1.20;;;;;;;;;;492378;241;26952;-72
2021/08/07 00:04:21;;;;;;;1.60;1.50;;;;;;;;;;492322;241;28106;-71
2021/08/07 00:06:23;;;;;;;1.43;1.33;;;;;;;;;;492297;241;28141;-72
2021/08/07 00:08:25;;;;;;;2.07;1.13;;;;;;;;;;492270;241;27945;-72
2021/08/07 00:10:28;;;;;;;1.30;1.20;;;;;;;;;;492120;241;27844;-72
2021/08/07 00:12:30;;;;;;;1.33;1.20;;;;;;;;;;492345;240;26379;-71
2021/08/07 00:14:33;;;;;;;1.60;1.13;;;;;;;;;;492310;241;27391;-72
2021/08/07 00:16:35;;;;;;;1.20;1.10;;;;;;;;;;492343;241;27574;-72
2021/08/07 00:18:37;;;;;;;1.10;1.10;;;;;;;;;;492336;241;27429;-71
2021/08/07 00:20:39;;;;;;;2.40;1.20;;;;;;;;;;492342;241;27383;-72
2021/08/07 00:22:41;;;;;;;1.27;1.17;;;;;;;;;;492347;241;27379;-72
2021/08/07 00:24:43;;;;;;;1.10;1.10;;;;;;;;;;492328;241;27852;-71
2021/08/07 00:26:44;;;;;;;1.37;1.27;;;15.30;99.90;;;;;;492344;241;27875;-70
2021/08/07 00:28:45;;;;;;;1.17;1.17;;;15.30;99.90;;;;;;492329;241;29369;-71
2021/08/07 00:30:49;;;;;;;1.27;1.27;;;;;;;;;;492342;241;29646;-72
2021/08/07 00:32:51;;;;;;;1.20;1.10;;;;;;;;;;492353;241;26373;-72
2021/08/07 00:34:53;;;;;;;1.10;1.10;;;15.40;99.90;;;;;;492343;241;27387;-70
2021/08/07 00:36:55;;;;;;;1.03;1.03;;;;;;;;;;492356;241;27507;-70
2021/08/07 00:38:57;;;;;;;1.57;1.47;;;;;;;;;;492357;241;27510;-70
2021/08/07 00:40:59;;;;;;;1.20;1.20;;;;;;;;;;492348;241;27555;-70
2021/08/07 00:43:01;;;;;;;1.10;1.10;;;;;;;;;;492348;240;27503;-70
2021/08/07 00:45:03;;;;;;;2.03;1.50;;;;;;;;;;492323;241;28021;-72
2021/08/07 00:47:05;;;;;;;1.20;1.20;;;;;;;;;;492361;241;28132;-71
2021/08/07 00:49:07;;;;;;;1.57;1.47;;;;;;;;;;492361;241;27989;-70
2021/08/07 00:51:09;;;;;;;1.73;1.27;;;;;;;;;;492336;241;27993;-70
2021/08/07 00:53:13;;;;;;;1.20;1.20;;;;;;;;;;492282;241;28116;-71
2021/08/07 00:55:14;;;;;;;1.30;1.20;;;15.40;99.90;;;;;;492304;241;26687;-72
2021/08/07 00:57:17;;;;;;;1.40;1.30;;;;;;;;;;492318;241;28775;-72
2021/08/07 00:59:20;;;;;;;1.10;1.10;;;;;;;;;;492313;241;26386;-70
2021/08/07 01:01:21;;;;;;;1.60;1.50;;;15.30;99.90;;;;;;492333;241;26444;-70
2021/08/07 01:03:23;;;;;;;2.00;1.30;;;;;;;;;;492317;241;28877;-69
2021/08/07 01:05:25;;;;;;;1.10;1.10;;;15.20;99.90;;;;;;492315;241;27482;-70
2021/08/07 01:07:26;;;;;;;0.93;0.93;;;15.20;99.90;;;;;;492335;241;30028;-70
2021/08/07 01:09:27;;;;;;;2.00;1.00;;;15.20;99.90;;;;;;492313;241;29384;-70
2021/08/07 01:11:28;;;;;;;1.30;1.20;;;15.10;99.90;;;;;;492318;241;29447;-70
2021/08/07 01:13:30;;;;;;;1.13;1.13;;;15.10;99.90;;;;;;492317;241;29202;-69
2021/08/07 01:15:32;;;;;;;1.00;1.00;;;;;;;;;;492328;241;28792;-70
2021/08/07 01:17:34;;;;;;;1.20;1.20;;;15.10;99.90;;;;;;492331;241;27504;-70
2021/08/07 01:19:35;;;;;;;1.10;1.10;;;15.00;99.90;;;;;;492317;240;27507;-70
2021/08/07 01:21:38;;;;;;;2.20;1.13;;;;;;;;;;492312;241;28726;-71
2021/08/07 01:23:40;;;;;;;1.40;1.30;;;;;;;;;;492336;241;26413;-72
2021/08/07 01:25:43;;;;;;;1.10;1.10;;;;;;;;;;492327;241;27450;-70
2021/08/07 01:27:45;;;;;;;1.00;1.00;;;;;;;;;;492363;241;27464;-70
2021/08/07 01:29:47;;;;;;;1.60;1.50;;;;;;;;;;492362;241;27551;-70
2021/08/07 01:31:49;;;;;;;1.30;1.00;;;;;;;;;;492332;241;27552;-70
2021/08/07 01:33:51;;;;;;;1.07;1.07;;;;;;;;;;492313;241;27950;-71
2021/08/07 01:35:53;;;;;;;0.80;0.80;;;;;;;;;;492322;241;27828;-72
2021/08/07 01:37:55;;;;;;;1.20;1.10;;;;;;;;;;491965;241;28809;-71
2021/08/07 01:39:58;;;;;;;1.33;1.23;;;;;;;;;;492314;241;27914;-71
2021/08/07 01:42:00;;;;;;;1.47;1.03;;;;;;;;;;492309;241;26367;-71
2021/08/07 01:44:02;;;;;;;1.13;1.10;;;;;;;;;;492306;241;27391;-72
2021/08/07 01:46:03;;;;;;;1.10;1.10;;;14.70;99.90;;;;;;492304;241;27394;-70
2021/08/07 01:48:05;;;;;;;1.10;1.10;;;14.70;99.90;;;;;;492323;240;28294;-71
2021/08/07 01:50:06;;;;;;;1.10;1.10;;;14.80;99.90;;;;;;492317;241;28813;-70
2021/08/07 01:52:07;;;;;;;1.77;1.27;;;14.80;99.90;;;;;;492332;241;29150;-71
2021/08/07 01:54:08;;;;;;;1.00;1.00;;;14.80;99.90;;;;;;492313;241;28804;-70
2021/08/07 01:56:10;;;;;;;1.47;1.00;;;14.80;99.90;;;;;;492317;241;28962;-70
2021/08/07 01:58:11;;;;;;;1.27;1.27;;;14.80;99.90;;;;;;492320;241;28782;-71
2021/08/07 02:00:14;;;;;;;1.47;1.30;;;14.80;99.90;;;;;;492322;241;28818;-70
2021/08/07 02:02:13;;;;;;;0.90;0.90;;;14.80;99.90;;;;;;492197;241;29210;-70
2021/08/07 02:04:15;;;;;;;1.40;1.30;;;14.80;99.90;;;;;;492307;241;29202;-72
2021/08/07 02:06:16;;;;;;;1.20;1.20;;;14.80;99.90;;;;;;492308;241;29279;-71
2021/08/07 02:08:17;;;;;;;1.10;1.10;;;14.90;99.90;;;;;;492316;241;29370;-72
2021/08/07 02:10:18;;;;;;;1.47;1.37;;;14.80;99.90;;;;;;492310;241;28825;-72
2021/08/07 02:12:20;;;;;;;1.10;1.00;;;14.80;99.90;;;;;;492310;241;28818;-69
2021/08/07 02:14:21;;;;;;;1.50;1.40;;;14.80;99.90;;;;;;492344;241;28794;-69
2021/08/07 02:16:22;;;;;;;1.13;1.10;;;14.80;99.90;;;;;;492329;241;28806;-72
2021/08/07 02:18:23;;;;;;;1.00;1.00;;;14.80;99.90;;;;;;492345;241;28956;-71
2021/08/07 02:20:25;;;;;;;1.10;1.10;;;;;;;;;;492331;241;28822;-71
2021/08/07 02:22:27;;;;;;;1.30;1.20;;;14.80;99.90;;;;;;492322;241;27400;-71
2021/08/07 02:24:28;;;;;;;1.37;1.37;;;14.80;99.90;;;;;;492295;241;28893;-72
2021/08/07 02:26:29;;;;;;;1.10;1.10;;;14.80;99.90;;;;;;492314;241;28680;-71
2021/08/07 02:28:30;;;;;;;1.50;1.40;;;14.80;99.90;;;;;;492341;241;28999;-70
2021/08/07 02:30:32;;;;;;;1.00;1.00;;;14.70;99.90;;;;;;492330;241;30142;-72
2021/08/07 02:32:33;;;;;;;1.27;1.17;;;14.70;99.90;;;;;;492320;241;29226;-72
2021/08/07 02:34:34;;;;;;;1.30;1.30;;;14.80;99.90;;;;;;492331;241;28784;-72
2021/08/07 02:36:35;;;;;;;1.13;1.13;;;14.80;99.90;;;;;;492339;241;28752;-72
2021/08/07 02:38:37;;;;;;;1.20;1.10;;;14.80;99.90;;;;;;492331;241;28873;-72
2021/08/07 02:40:38;;;;;;;1.30;1.20;;;14.80;99.90;;;;;;492299;241;28539;-72
2021/08/07 02:42:39;;;;;;;1.20;1.20;;;14.80;99.90;;;;;;492326;241;28760;-69
2021/08/07 02:44:40;;;;;;;1.10;1.10;;;14.90;99.90;;;;;;492315;241;28428;-69
2021/08/07 02:46:42;;;;;;;1.43;1.33;;;14.90;99.90;;;;;;492315;241;28802;-69
2021/08/07 02:48:43;;;;;;;1.10;1.10;;;14.90;99.90;;;;;;492333;241;28893;-69
2021/08/07 02:50:44;;;;;;;1.00;1.00;;;14.90;99.90;;;;;;492294;241;28711;-72
2021/08/07 02:52:45;;;;;;;1.30;1.20;;;14.80;99.90;;;;;;492324;241;29080;-72
2021/08/07 02:54:47;;;;;;;1.77;1.10;;;14.80;99.90;;;;;;492313;241;29384;-72
2021/08/07 02:56:48;;;;;;;1.23;1.10;;;14.80;99.90;;;;;;492284;241;29310;-69
2021/08/07 02:58:49;;;;;;;1.50;1.40;;;14.80;99.90;;;;;;492306;241;28889;-70
2021/08/07 03:00:50;;;;;;;1.10;1.00;;;14.80;99.90;;;;;;492305;241;28697;-69
2021/08/07 03:02:52;;;;;;;1.30;1.20;;;14.80;99.90;;;;;;492320;241;28674;-69
2021/08/07 03:04:53;;;;;;;1.30;1.30;;;14.80;99.90;;;;;;492306;241;28899;-70
2021/08/07 03:06:54;;;;;;;1.20;1.10;;;14.80;99.90;;;;;;492305;241;28733;-70
2021/08/07 03:08:55;;;;;;;1.20;1.17;;;14.80;99.90;;;;;;492296;241;28419;-70
2021/08/07 03:10:57;;;;;;;1.30;1.20;;;14.80;99.90;;;;;;492324;241;28718;-70
2021/08/07 03:12:59;;;;;;;1.13;1.13;;;14.90;99.90;;;;;;492305;241;28502;-69
2021/08/07 03:14:59;;;;;;;1.20;1.20;;;14.90;99.90;;;;;;492242;241;28832;-71
2021/08/07 03:17:00;;;;;;;1.27;1.17;;;14.90;99.90;;;;;;492099;241;29542;-70
2021/08/07 03:19:02;;;;;;;1.10;1.10;;;14.90;99.90;;;;;;492250;241;29262;-70
2021/08/07 03:21:03;;;;;;;0.90;0.90;;;14.90;99.90;;;;;;492173;241;29310;-70
2021/08/07 03:23:04;;;;;;;1.20;1.20;;;14.90;99.90;;;;;;492263;241;29143;-70
2021/08/07 03:25:05;;;;;;;1.67;1.20;;;15.00;99.90;;;;;;492266;240;28893;-70
2021/08/07 03:27:07;;;;;;;1.10;1.10;;;15.00;99.90;;;;;;492306;241;28876;-70
2021/08/07 03:29:08;;;;;;;1.20;1.10;;;14.90;99.90;;;;;;492316;241;28710;-71
2021/08/07 03:31:09;;;;;;;1.33;1.23;;;14.90;99.90;;;;;;492293;241;29082;-69
2021/08/07 03:33:10;;;;;;;1.10;1.10;;;14.90;99.90;;;;;;492310;241;28671;-72
2021/08/07 03:35:12;;;;;;;1.43;1.03;;;14.90;99.90;;;;;;492336;241;28810;-69
2021/08/07 03:37:13;;;;;;;2.20;1.30;;;14.90;99.90;;;;;;492334;241;28570;-69
2021/08/07 03:39:14;;;;;;;1.20;1.10;;;14.90;99.90;;;;;;492335;241;28803;-70
2021/08/07 03:41:15;;;;;;;3.70;1.30;;;15.00;99.90;;;;;;492315;241;29302;-70
2021/08/07 03:43:17;;;;;;;1.57;1.23;;;14.90;99.90;;;;;;492322;240;29329;-70
2021/08/07 03:45:18;;;;;;;1.00;1.00;;;14.90;99.90;;;;;;492325;241;29296;-71
2021/08/07 03:47:19;;;;;;;1.40;1.30;;;15.00;99.90;;;;;;492306;241;29359;-72
2021/08/07 03:49:20;;;;;;;1.10;1.10;;;14.90;99.90;;;;;;492316;241;28802;-69
2021/08/07 03:51:22;;;;;;;1.20;1.20;;;14.90;99.90;;;;;;492342;241;28825;-71
2021/08/07 03:53:23;;;;;;;1.20;1.10;;;14.90;99.90;;;;;;492314;241;28770;-72
2021/08/07 03:55:25;;;;;;;1.13;1.10;;;14.90;99.90;;;;;;492332;241;28838;-72
2021/08/07 03:57:25;;;;;;;1.37;1.27;;;14.90;99.90;;;;;;492396;241;28857;-72
2021/08/07 03:59:27;;;;;;;2.30;1.20;;;14.90;99.90;;;;;;492170;241;28832;-72
2021/08/07 04:01:28;;;;;;;1.70;1.20;;;14.90;99.90;;;;;;492260;241;29175;-71
2021/08/07 04:03:29;;;;;;;1.40;1.30;;;14.90;99.90;;;;;;492346;241;28783;-69
2021/08/07 04:05:30;;;;;;;1.40;1.30;;;14.80;99.90;;;;;;492345;241;29229;-71
2021/08/07 04:07:32;;;;;;;1.10;1.10;;;14.90;99.90;;;;;;492356;241;29286;-70
2021/08/07 04:09:33;;;;;;;2.20;1.40;;;14.90;99.90;;;;;;492318;241;29367;-72
2021/08/07 04:11:34;;;;;;;1.10;1.10;;;14.90;99.90;;;;;;492331;241;29470;-70
2021/08/07 04:13:36;;;;;;;1.30;1.30;;;15.00;99.90;;;;;;492319;241;28766;-72
2021/08/07 04:15:38;;;;;;;1.43;1.20;;;15.00;99.90;;;;;;492317;241;28873;-72
2021/08/07 04:17:38;;;;;;;1.43;1.33;;;15.00;99.90;;;;;;492272;241;28809;-71
2021/08/07 04:19:39;;;;;;;1.23;1.13;;;15.00;99.90;;;;;;492307;241;28801;-72
2021/08/07 04:21:41;;;;;;;1.30;1.20;;;15.00;99.90;;;;;;492338;241;28529;-72
2021/08/07 04:23:42;;;;;;;3.33;1.30;;;15.00;99.90;;;;;;492318;241;28849;-71
2021/08/07 04:25:43;;;;;;;1.10;1.10;;;15.00;99.90;;;;;;492323;241;28506;-69
2021/08/07 04:27:44;;;;;;;1.20;1.20;;;15.00;99.90;;;;;;492318;241;28863;-70
2021/08/07 04:29:46;;;;;;;1.33;1.23;;;15.00;99.90;;;;;;492316;241;28809;-70
2021/08/07 04:31:47;;;;;;;1.30;1.27;;;15.00;99.90;;;;;;492323;241;29314;-70
2021/08/07 04:33:48;;;;;;;1.30;1.20;;;15.00;99.90;;;;;;492307;241;29368;-70
2021/08/07 04:35:49;;;;;;;1.50;1.40;;;15.00;99.90;;;;;;492304;241;29304;-70
2021/08/07 04:37:51;;;;;;;1.30;1.17;;;15.10;99.90;;;;;;492324;241;28766;-70
2021/08/07 04:39:52;;;;;;;3.93;1.33;;;15.10;99.90;;;;;;492320;241;28892;-72
2021/08/07 04:41:53;;;;;;;1.53;1.10;;;15.10;99.90;;;;;;492334;241;28817;-70
2021/08/07 04:43:54;;;;;;;1.17;1.10;;;15.10;99.90;;;;;;492306;241;28874;-72
2021/08/07 04:45:56;;;;;;;1.50;1.40;;;15.10;99.90;;;;;;492286;241;28811;-72
2021/08/07 04:47:57;;;;;;;1.20;1.20;;;15.20;99.90;;;;;;492293;241;29187;-72
2021/08/07 04:49:58;;;;;;;1.40;1.27;;;15.20;99.90;;;;;;492279;241;28836;-72
2021/08/07 04:52:00;;;;;;;1.47;1.37;;;15.20;99.90;;;;;;492273;241;28818;-72
2021/08/07 04:54:01;;;;;;;1.40;1.30;;;15.10;99.90;;;;;;492165;241;28750;-72
2021/08/07 04:56:02;;;;;;;1.53;1.40;;;15.20;99.90;;;;;;492219;241;29192;-72
2021/08/07 04:58:03;;;;;;;1.37;1.27;;;15.10;99.90;;;;;;492272;241;29694;-72
2021/08/07 05:00:04;;;;;;;1.83;1.10;;;15.20;99.90;;;;;;492264;241;29249;-72
2021/08/07 05:02:06;;;;;;;1.27;1.17;;;15.20;99.90;;;;;;492294;241;28819;-70
2021/08/07 05:04:07;;;;;;;1.00;1.00;;;15.20;99.90;;;;;;492274;241;28780;-70
2021/08/07 05:06:08;;;;;;;1.20;1.10;;;15.20;99.90;;;;;;492270;241;28842;-71
2021/08/07 05:08:09;;;;;;;1.20;1.20;;;15.20;99.90;;;;;;492288;241;28772;-71
2021/08/07 05:10:11;;;;;;;1.67;1.10;;;15.20;99.90;;;;;;492312;241;28803;-71
2021/08/07 05:12:12;;;;;;;1.67;1.00;;;15.20;99.90;;;;;;492314;241;28820;-71
2021/08/07 05:14:13;;;;;;;1.37;1.27;;;15.20;99.90;;;;;;492312;241;28765;-72
2021/08/07 05:16:14;;;;;;;1.00;1.00;;;15.20;99.90;;;;;;492317;241;28816;-72
2021/08/07 05:18:16;;;;;;;1.13;1.13;;;15.30;99.90;;;;;;492270;241;28798;-72
2021/08/07 05:20:17;;;;;;;1.30;1.20;;;15.30;99.90;;;;;;492305;241;29328;-70
2021/08/07 05:22:18;;;;;;;1.20;1.10;;;15.30;99.90;;;;;;492322;241;29285;-72
2021/08/07 05:24:19;;;;;;;1.10;1.10;;;15.40;99.90;;;;;;492349;241;29230;-72
2021/08/07 05:26:21;;;;;;;1.40;1.30;;;15.50;99.90;;;;;;492323;241;28900;-70
2021/08/07 05:28:22;;;;;;;1.10;1.10;;;15.50;99.90;;;;;;492341;241;28770;-69
2021/08/07 05:30:23;;;;;;;1.70;1.40;;;15.50;99.90;;;;;;492302;241;28702;-70
2021/08/07 05:32:25;;;;;;;1.50;1.40;;;15.50;99.90;;;;;;492347;241;28720;-72
2021/08/07 05:34:26;;;;;;;1.30;1.30;;;15.50;99.90;;;;;;492312;241;28775;-72
2021/08/07 05:36:27;;;;;;;1.20;1.20;;;15.40;99.90;;;;;;492307;241;28882;-72
2021/08/07 05:38:28;;;;;;;1.30;1.20;;;15.50;99.90;;;;;;492306;241;28834;-72
2021/08/07 05:40:29;;;;;;;1.37;1.30;;;15.50;99.90;;;;;;492310;241;28806;-72
2021/08/07 05:42:31;;;;;;;1.37;1.33;;;15.60;99.90;;;;;;492317;241;28746;-69
2021/08/07 05:44:32;;;;;;;2.00;1.50;;;15.70;99.90;;;;;;492318;241;29294;-69
2021/08/07 05:46:33;;;;;;;1.70;1.37;;;15.70;99.90;;;;;;492303;241;29408;-72
2021/08/07 05:48:34;;;;;;;2.40;1.17;;;15.80;99.90;;;;;;492318;241;29999;-70
2021/08/07 05:50:36;;;;;;;1.40;1.30;;;15.90;99.90;;;;;;492325;241;28758;-72
2021/08/07 05:52:37;;;;;;;1.23;1.20;;;15.90;99.90;;;;;;492308;241;28814;-71
2021/08/07 05:54:38;;;;;;;1.20;1.20;;;16.00;99.90;;;;;;492298;241;28908;-72
2021/08/07 05:56:39;;;;;;;1.20;1.20;;;16.00;99.90;;;;;;492297;241;28893;-72
2021/08/07 05:58:41;;;;;;;1.77;1.40;;;16.00;99.90;;;;;;492316;241;28812;-71
2021/08/07 06:00:42;;;;;;;1.70;1.60;;;16.00;99.90;;;;;;492318;241;28778;-71
2021/08/07 06:02:43;;;;;;;1.63;1.53;;;16.00;99.90;;;;;;492320;241;28841;-71
2021/08/07 06:04:44;;;;;;;1.53;1.43;;;16.10;99.90;;;;;;492310;241;28950;-72
2021/08/07 06:06:46;;;;;;;1.70;1.60;;;16.10;99.90;;;;;;492298;241;28822;-72
2021/08/07 06:08:47;;;;;;;1.20;1.20;;;16.10;99.90;;;;;;492300;241;29247;-72
2021/08/07 06:10:48;;;;;;;1.13;1.13;;;16.20;99.90;;;;;;492319;241;29186;-72
2021/08/07 06:12:49;;;;;;;1.30;1.30;;;16.30;99.90;;;;;;492322;241;29303;-73
2021/08/07 06:14:51;;;;;;;2.30;1.47;;;16.30;99.90;;;;;;492308;241;29248;-69
2021/08/07 06:16:52;;;;;;;1.40;1.27;;;16.30;99.90;;;;;;492280;241;28879;-72
2021/08/07 06:18:53;;;;;;;1.50;1.40;;;16.40;99.90;;;;;;492323;241;28803;-71
2021/08/07 06:20:54;;;;;;;1.40;1.30;;;16.50;99.90;;;;;;492298;241;28777;-72
2021/08/07 06:22:56;;;;;;;1.60;1.50;;;16.60;99.90;;;;;;492300;241;28807;-72
2021/08/07 06:25:00;;;;;;;1.73;1.60;;;16.60;99.90;;;;;;492312;241;28792;-71
2021/08/07 06:26:58;;;;;;;3.20;1.53;;;16.60;99.90;;;;;;492145;241;28838;-72
2021/08/07 06:28:59;;;;;;;1.80;1.70;;;16.50;99.90;;;;;;492239;241;29063;-69
2021/08/07 06:31:01;;;;;;;1.27;1.17;;;16.50;99.90;;;;;;492267;241;28745;-70
2021/08/07 06:33:02;;;;;;;1.90;1.40;;;16.50;99.90;;;;;;492263;241;29283;-72
2021/08/07 06:35:03;;;;;;;5.43;1.60;;;16.50;99.90;;;;;;492288;241;29333;-69
2021/08/07 06:37:04;;;;;;;1.70;1.60;;;16.60;99.90;;;;;;492267;241;29223;-72
2021/08/07 06:39:06;;;;;;;2.60;1.57;;;16.70;99.90;;;;;;492309;241;29174;-72
2021/08/07 06:41:07;;;;;;;2.07;1.30;;;16.70;99.90;;;;;;492296;241;28777;-72
2021/08/07 06:43:08;;;;;;;2.00;1.27;;;16.80;99.90;;;;;;492306;241;28720;-71
2021/08/07 06:45:09;;;;;;;2.57;1.50;;;16.80;99.90;;;;;;492308;241;28787;-71
2021/08/07 06:47:11;;;;;;;1.30;1.23;;;16.90;99.90;;;;;;492286;241;28775;-71
2021/08/07 06:49:12;;;;;;;1.20;1.20;;;16.90;99.90;;;;;;492314;241;28934;-72
2021/08/07 06:51:13;;;;;;;1.50;1.40;;;17.00;99.90;;;;;;492288;241;28793;-70
2021/08/07 06:53:14;;;;;;;2.40;1.70;;;17.00;99.90;;;;;;492320;241;29256;-69
2021/08/07 06:55:16;;;;;;;1.43;1.33;;;17.00;99.90;;;;;;492327;241;28883;-70
2021/08/07 06:57:17;;;;;;;2.30;1.50;;;17.00;99.90;;;;;;492177;241;29310;-72
2021/08/07 06:59:19;;;;;;;1.90;1.40;;;17.10;99.90;;;;;;492310;241;29381;-71
2021/08/07 07:01:19;;;;;;;1.50;1.40;;;17.10;99.90;;;;;;492298;241;29242;-72
2021/08/07 07:03:21;;;;;;;1.60;1.50;;;17.20;99.90;;;;;;492319;240;29287;-72
2021/08/07 07:05:22;;;;;;;2.03;1.30;;;17.40;99.90;;;;;;492319;241;28700;-69
2021/08/07 07:07:23;;;;;;;1.43;1.33;;;17.50;99.90;;;;;;492354;241;28835;-71
2021/08/07 07:09:24;;;;;;;3.37;1.40;;;17.50;99.90;;;;;;492379;241;28881;-71
2021/08/07 07:11:26;;;;;;;2.50;1.50;;;17.50;99.90;;;;;;492352;241;28747;-72
2021/08/07 07:13:27;;;;;;;1.30;1.20;;;17.50;99.90;;;;;;492357;241;28788;-72
2021/08/07 07:15:28;;;;;;;1.53;1.33;;;17.50;99.90;;;;;;492368;241;29238;-72
2021/08/07 07:17:29;;;;;;;1.40;1.30;;;17.60;99.90;;;;;;492349;241;28776;-72
2021/08/07 07:19:31;;;;;;;1.60;1.40;;;17.60;99.90;;;;;;492347;241;28932;-69
2021/08/07 07:21:32;;;;;;;2.03;1.30;;;17.60;99.90;;;;;;492345;241;29232;-70
2021/08/07 07:23:33;;;;;;;3.57;1.53;;;17.50;99.90;;;;;;492317;241;29402;-70
2021/08/07 07:25:34;;;;;;;1.77;1.57;;;17.60;99.90;;;;;;492328;241;29334;-72
2021/08/07 07:27:36;;;;;;;1.40;1.30;;;17.70;99.90;;;;;;492340;241;29351;-72
2021/08/07 07:29:37;;;;;;;2.27;1.70;;;17.90;99.90;;;;;;492335;241;28793;-71
2021/08/07 07:31:38;;;;;;;1.30;1.30;;;17.90;99.90;;;;;;492337;241;28824;-70
2021/08/07 07:33:39;;;;;;;1.43;1.37;;;18.00;99.90;;;;;;492315;241;28705;-69
2021/08/07 07:35:41;;;;;;;2.03;1.30;;;18.00;99.90;;;;;;492332;241;28906;-70
2021/08/07 07:37:43;;;;;;;1.67;1.57;;;18.10;99.90;;;;;;492362;237;28788;-70
2021/08/07 07:39:43;;;;;;;1.93;1.50;;;18.10;99.90;;;;;;492340;241;28815;-69
2021/08/07 07:41:44;;;;;;;1.57;1.47;;;18.10;99.90;;;;;;492371;241;28772;-72
2021/08/07 07:43:46;;;;;;;1.73;1.30;;;18.20;99.90;;;;;;492345;241;28830;-70
2021/08/07 07:45:47;;;;;;;1.63;1.30;;;18.10;99.90;;;;;;492266;240;29306;-69
2021/08/07 07:47:48;;;;;;;3.13;1.87;;;18.20;99.90;;;;;;492326;241;29297;-71
2021/08/07 07:49:49;;;;;;;1.67;1.57;;;18.20;99.90;;;;;;492301;240;29279;-71
2021/08/07 07:51:51;;;;;;;1.70;1.60;;;18.20;99.90;;;;;;492321;241;29224;-71
2021/08/07 07:53:52;;;;;;;3.50;1.50;;;18.30;99.90;;;;;;492344;241;28896;-71
2021/08/07 07:55:53;;;;;;;3.10;1.40;;;18.40;99.90;;;;;;492105;241;28823;-72
2021/08/07 07:57:54;;;;;;;2.03;1.60;;;18.40;99.90;;;;;;492355;241;28788;-72
2021/08/07 07:59:56;;;;;;;2.47;1.67;;;18.50;99.90;;;;;;492331;241;28809;-71
2021/08/07 08:02:02;;;;;;;1.50;1.40;;;18.50;99.90;;;;;;492345;241;28774;-71
2021/08/07 08:03:58;;;;;;;1.80;1.60;;;18.60;99.90;;;;;;492022;241;28837;-71
2021/08/07 08:05:59;;;;;;;2.17;1.60;;;18.50;99.90;;;;;;492292;241;28811;-71
2021/08/07 08:08:01;;;;;;;1.90;1.47;;;18.30;99.90;;;;;;492232;241;28774;-72
2021/08/07 08:10:02;;;;;;;1.60;1.50;;;18.30;99.90;;;;;;492321;241;29332;-70
2021/08/07 08:12:04;;;;;;;1.77;1.67;;;18.20;99.90;;;;;;492329;241;29319;-69
2021/08/07 08:14:04;;;;;;;1.60;1.50;;;18.10;99.90;;;;;;492275;241;29238;-70
2021/08/07 08:16:07;;;;;;;2.60;1.50;;;18.10;99.90;;;;;;492328;240;28880;-70
2021/08/07 08:18:07;;;;;;;1.70;1.60;;;18.00;99.90;;;;;;492266;241;28780;-70
2021/08/07 08:20:08;;;;;;;1.40;1.30;;;18.10;99.90;;;;;;492326;241;28931;-69
2021/08/07 08:22:09;;;;;;;1.87;1.70;;;18.20;99.90;;;;;;492319;241;28874;-69
2021/08/07 08:24:11;;;;;;;1.50;1.40;;;18.30;99.90;;;;;;492262;241;28809;-70
2021/08/07 08:26:12;;;;;;;2.70;1.83;;;18.40;99.90;;;;;;492320;241;28833;-71
2021/08/07 08:28:13;;;;;;;2.70;1.73;;;18.30;99.90;;;;;;492312;241;28775;-69
2021/08/07 08:30:15;;;;;;;1.43;1.33;;;18.20;99.90;;;;;;492327;241;28884;-70
2021/08/07 08:32:16;;;;;;;1.73;1.60;;;18.20;99.90;;;;;;492347;241;28763;-70
2021/08/07 08:34:17;;;;;;;2.80;1.60;;;18.10;99.90;;;;;;492323;241;29287;-70
2021/08/07 08:36:18;;;;;;;3.50;1.80;;;18.00;99.90;;;;;;492325;241;29391;-72
2021/08/07 08:38:20;;;;;;;2.60;1.80;;;18.00;99.90;;;;;;492361;241;29258;-73
2021/08/07 08:40:21;;;;;;;1.67;1.57;;;18.00;99.90;;;;;;492264;241;29263;-72
2021/08/07 08:42:22;;;;;;;1.90;1.60;;;18.00;99.90;;;;;;492165;241;28914;-71
2021/08/07 08:44:23;;;;;;;3.60;1.53;;;17.90;99.90;;;;;;492333;241;28812;-72
2021/08/07 08:46:25;;;;;;;1.30;1.20;;;17.90;99.90;;;;;;492354;241;28822;-72
2021/08/07 08:48:26;;;;;;;1.67;1.50;;;17.90;99.90;;;;;;492326;241;28771;-71
2021/08/07 08:50:27;;;;;;;3.60;1.60;;;17.80;99.90;;;;;;492349;241;28812;-71
2021/08/07 08:52:29;;;;;;;1.40;1.30;;;17.90;99.90;;;;;;492348;241;29386;-72
2021/08/07 08:54:30;;;;;;;1.80;1.60;;;17.80;99.90;;;;;;492290;241;28856;-71
2021/08/07 08:56:34;;;;;;;2.10;1.70;;;17.80;99.90;;;;;;492345;241;28821;-71
2021/08/07 08:58:35;;;;;;;3.03;1.40;;;17.90;99.90;;;;;;492159;241;29210;-71
2021/08/07 09:00:33;;;;;;;1.40;1.30;;;18.00;99.90;;;;;;492158;241;29430;-71
2021/08/07 09:02:35;;;;;;;3.17;1.50;;;18.30;99.90;;;;;;492365;241;30097;-71
2021/08/07 09:04:36;;;;;;;2.50;1.50;;;18.40;99.90;;;;;;492332;241;28804;-72
2021/08/07 09:06:37;;;;;;;2.47;1.53;;;18.60;99.90;;;;;;492366;241;28889;-71
2021/08/07 09:08:38;;;;;;;1.73;1.63;;;18.70;99.90;;;;;;492340;241;28830;-71
2021/08/07 09:10:40;;;;;;;1.73;1.57;;;18.70;99.90;;;;;;492329;241;28778;-71
2021/08/07 09:12:41;;;;;;;1.53;1.43;;;18.60;99.90;;;;;;492348;241;28687;-71
2021/08/07 09:14:42;;;;;;;1.50;1.40;;;18.60;99.90;;;;;;492311;241;28821;-71
2021/08/07 09:16:43;;;;;;;3.33;1.57;;;18.70;99.90;;;;;;492338;241;28813;-71
2021/08/07 09:18:45;;;;;;;1.43;1.33;;;18.70;99.90;;;;;;492353;241;28860;-71
2021/08/07 09:20:46;;;;;;;1.50;1.40;;;18.80;99.90;;;;;;492324;240;28807;-71
2021/08/07 09:22:47;;;;;;;1.80;1.60;;;19.00;99.90;;;;;;492336;241;29358;-71
2021/08/07 09:24:48;;;;;;;1.83;1.37;;;19.10;99.90;;;;;;491927;241;29257;-71
2021/08/07 09:26:50;;;;;;;1.37;1.27;;;19.40;99.90;;;;;;492324;241;29283;-71
2021/08/07 09:28:51;;;;;;;4.13;1.50;;;19.50;99.90;;;;;;492319;241;29363;-71
2021/08/07 09:30:52;;;;;;;1.33;1.10;;;19.50;99.90;;;;;;492320;241;28805;-72
2021/08/07 09:32:53;;;;;;;1.97;1.37;;;19.50;99.90;;;;;;492309;241;28770;-70
2021/08/07 09:34:55;;;;;;;1.47;1.33;;;19.50;99.90;;;;;;492307;240;28851;-72
2021/08/07 09:36:56;;;;;;;1.60;1.43;;;19.60;99.90;;;;;;492319;241;28801;-71
2021/08/07 09:38:57;;;;;;;2.50;1.50;;;19.70;99.90;;;;;;492324;241;28879;-71
2021/08/07 09:40:58;;;;;;;3.30;1.50;;;19.60;99.90;;;;;;492317;241;28879;-70
2021/08/07 09:43:00;;;;;;;1.90;1.37;;;19.60;99.90;;;;;;492305;241;28898;-71
2021/08/07 09:45:01;;;;;;;2.30;1.53;;;19.50;99.90;;;;;;492295;241;28760;-71
2021/08/07 09:47:02;;;;;;;3.00;1.60;;;19.50;99.90;;;;;;492292;241;29247;-70
2021/08/07 09:49:05;;;;;;;3.53;1.67;;;;;;;;;;492318;241;29272;-72
2021/08/07 09:51:06;;;;;;;1.53;1.40;;;19.30;99.90;;;;;;492346;241;26369;-72
2021/08/07 09:53:08;;;;;;;3.13;1.50;;;19.20;99.90;;;;;;492339;241;28797;-71
2021/08/07 09:55:09;;;;;;;1.83;1.70;;;19.20;99.90;;;;;;492308;238;28886;-72
2021/08/07 09:57:10;;;;;;;2.67;1.80;;;19.10;99.90;;;;;;492317;241;28801;-71
2021/08/07 09:59:11;;;;;;;1.77;1.57;;;19.00;99.90;;;;;;492310;241;28790;-71
2021/08/07 10:01:13;;;;;;;3.77;1.80;;;19.10;99.90;;;;;;492296;241;28800;-71
2021/08/07 10:03:14;;;;;;;1.63;1.53;;;19.00;99.90;;;;;;492297;241;28797;-72
2021/08/07 10:05:15;;;;;;;2.40;1.57;;;19.00;99.90;;;;;;492328;241;29234;-71
2021/08/07 10:07:16;;;;;;;1.63;1.50;;;19.00;99.90;;;;;;492329;241;29388;-71
2021/08/07 10:09:18;;;;;;;1.47;1.37;;;19.10;99.90;;;;;;492342;241;29364;-71
2021/08/07 10:11:20;;;;;;;1.73;1.63;;;19.10;99.90;;;;;;492337;241;28880;-71
2021/08/07 10:13:20;;;;;;;1.87;1.50;;;19.10;99.90;;;;;;491995;241;28822;-71
2021/08/07 10:15:21;;;;;;;1.90;1.70;;;19.10;99.90;;;;;;492100;241;28793;-71
2021/08/07 10:17:23;;;;;;;2.53;1.63;;;19.10;99.90;;;;;;492245;241;28801;-71
2021/08/07 10:19:24;;;;;;;3.03;1.90;;;19.00;99.90;;;;;;492335;241;28769;-71
2021/08/07 10:21:25;;;;;;;1.97;1.70;;;19.10;99.90;;;;;;492348;241;28817;-71
2021/08/07 10:23:26;;;;;;;2.80;1.70;;;19.20;99.90;;;;;;492318;241;28696;-72
2021/08/07 10:25:28;;;;;;;1.67;1.53;;;19.20;99.90;;;;;;492321;240;28674;-72
2021/08/07 10:27:30;;;;;;;2.60;1.50;;;19.10;99.90;;;;;;492315;240;28884;-71
2021/08/07 10:29:30;;;;;;;1.90;1.77;;;19.10;99.90;;;;;;492328;241;29344;-71
2021/08/07 10:31:31;;;;;;;2.70;1.50;;;19.10;99.90;;;;;;492331;241;29331;-71
2021/08/07 10:33:33;;;;;;;3.23;1.50;;;19.20;99.90;;;;;;492313;237;29281;-72
2021/08/07 10:35:34;;;;;;;1.90;1.40;;;19.30;99.90;;;;;;492337;241;28683;-70
2021/08/07 10:37:35;;;;;;;1.27;1.27;;;19.20;99.90;;;;;;492340;241;28716;-69
2021/08/07 10:39:36;;;;;;;2.07;1.50;;;19.30;99.90;;;;;;492157;241;28782;-69
2021/08/07 10:41:38;;;;;;;2.03;1.73;;;19.40;99.90;;;;;;492330;241;28795;-72